Time;durP1;ratioP1;P1;durP2;ratioP2;P2;SDS_P1;SDS_P2;PMS_P1;PMS_P2;Temp;Humidity;BMP_temperature;BMP_pressure;BME280_temperature;BME280_humidity;BME280_pressure;Samples;Min_cycle;Max_cycle;Signal;HPM_P1;HPM_P2
2022/01/30 00:00:31;;;;;;;14.03;2.23;;;5.40;99.90;4.40;97474;;;;581893;247;24103;-77
2022/01/30 00:02:59;;;;;;;8.67;1.60;;;5.20;99.90;4.40;97451;;;;582439;243;24115;-77
2022/01/30 00:05:30;;;;;;;4.97;1.50;;;5.20;99.90;4.30;97488;;;;588766;244;24080;-78
2022/01/30 00:07:55;;;;;;;7.30;2.20;;;5.20;99.90;4.20;97455;;;;588527;244;24068;-78
2022/01/30 00:10:25;;;;;;;7.10;2.37;;;5.00;99.90;4.00;97467;;;;588789;244;24101;-77
2022/01/30 00:12:54;;;;;;;5.67;2.27;;;4.80;99.90;3.90;97453;;;;578970;248;24073;-78
2022/01/30 00:15:24;;;;;;;12.10;1.97;;;4.70;99.90;3.80;97452;;;;592745;242;24075;-76
2022/01/30 00:17:53;;;;;;;9.13;1.40;;;4.60;99.90;3.80;97456;;;;588827;244;24107;-79
2022/01/30 00:20:21;;;;;;;2.73;1.50;;;4.60;99.90;3.70;97446;;;;593305;242;24103;-77
2022/01/30 00:22:49;;;;;;;9.53;1.83;;;4.60;99.90;3.70;97444;;;;593368;238;24073;-77
2022/01/30 00:25:16;;;;;;;7.43;2.83;;;4.50;99.90;3.70;97450;;;;592916;242;24117;-78
2022/01/30 00:27:48;;;;;;;3.30;1.60;;;4.50;99.90;3.70;97465;;;;593072;242;24097;-77
2022/01/30 00:30:14;;;;;;;5.33;1.63;;;4.50;99.90;3.70;97465;;;;592976;242;24113;-78
2022/01/30 00:32:40;;;;;;;8.33;2.10;;;4.50;99.90;3.70;97447;;;;592962;238;24090;-75
2022/01/30 00:35:12;;;;;;;12.53;2.90;;;4.50;99.90;3.60;97436;;;;593108;238;24098;-77
2022/01/30 00:37:40;;;;;;;6.57;1.80;;;4.40;99.90;3.50;97440;;;;593381;240;24083;-78
2022/01/30 00:40:04;;;;;;;7.40;2.40;;;4.40;99.90;3.50;97456;;;;594485;241;24117;-77
2022/01/30 00:42:35;;;;;;;5.70;1.67;;;4.30;99.90;3.40;97458;;;;594477;242;25111;-78
2022/01/30 00:45:00;;;;;;;14.77;2.83;;;4.20;99.90;3.50;97476;;;;593908;242;24074;-75
2022/01/30 00:47:28;;;;;;;10.70;3.40;;;4.30;99.90;3.50;97444;;;;594101;242;24060;-76
2022/01/30 00:49:55;;;;;;;20.00;2.00;;;4.40;99.90;3.70;97433;;;;594046;242;24098;-78
2022/01/30 00:52:23;;;;;;;8.43;2.57;;;4.50;99.90;3.80;97453;;;;594075;242;24102;-79
2022/01/30 00:54:55;;;;;;;6.60;2.20;;;4.60;99.90;3.90;97436;;;;594144;238;24083;-78
2022/01/30 00:57:19;;;;;;;11.30;2.07;;;4.70;99.90;3.90;97459;;;;593529;242;24117;-77
2022/01/30 00:59:49;;;;;;;15.80;2.17;;;4.70;99.90;4.00;97456;;;;593745;242;24105;-78
2022/01/30 01:02:15;;;;;;;9.17;4.30;;;4.80;99.90;4.10;97442;;;;593660;242;24107;-80
2022/01/30 01:04:43;;;;;;;4.67;1.87;;;4.90;99.90;4.20;97455;;;;593686;242;24087;-80
2022/01/30 01:07:17;;;;;;;10.20;2.20;;;5.00;99.90;4.20;97488;;;;593765;242;24064;-82
2022/01/30 01:09:40;;;;;;;6.33;1.43;;;5.10;99.90;4.20;97428;;;;593229;242;24083;-79
2022/01/30 01:34:03;;;;;;;10.47;2.83;;;5.20;99.90;4.20;97442;;;;617303;228;32567;-80
2022/01/30 01:36:07;;;;;;;8.23;2.40;;;5.20;99.90;4.30;97417;;;;605547;237;24070;-80
2022/01/30 01:38:35;;;;;;;10.53;1.93;;;5.20;99.90;4.30;97450;;;;606238;233;24064;-80
2022/01/30 01:41:03;;;;;;;5.90;1.47;;;5.20;99.90;4.40;97430;;;;606285;233;24083;-80
2022/01/30 01:43:31;;;;;;;12.03;2.53;;;5.30;99.90;4.40;97432;;;;605939;233;24046;-80
2022/01/30 01:46:02;;;;;;;14.90;3.83;;;5.30;99.90;4.40;97421;;;;606046;237;24092;-81
2022/01/30 01:48:32;;;;;;;5.60;2.50;;;5.30;99.90;4.40;97445;;;;605611;237;24058;-80
2022/01/30 01:51:05;;;;;;;10.03;2.00;;;5.30;99.90;4.40;97442;;;;605302;237;24060;-80
2022/01/30 01:53:23;;;;;;;14.77;3.23;;;5.30;99.90;4.30;97431;;;;604940;237;24065;-80
2022/01/30 01:55:50;;;;;;;8.60;1.60;;;5.20;99.90;4.20;97379;;;;605579;237;24061;-80
2022/01/30 01:58:18;;;;;;;5.63;1.70;;;5.20;99.90;4.30;97412;;;;605878;236;24111;-78
2022/01/30 02:00:46;;;;;;;5.10;1.90;;;5.10;99.90;4.30;97411;;;;605742;236;24071;-79
2022/01/30 02:03:16;;;;;;;11.60;3.17;;;5.20;99.90;4.30;97418;;;;605761;236;24082;-79
2022/01/30 02:05:46;;;;;;;5.57;1.43;;;5.20;99.90;4.20;97374;;;;605718;237;24062;-78
2022/01/30 02:10:50;;;;;;;6.63;2.30;;;5.10;99.90;4.20;97371;;;;605539;233;25158;-80
2022/01/30 02:13:31;;;;;;;5.43;1.27;;;5.10;99.90;4.10;97401;;;;604034;237;24092;-82
2022/01/30 02:24:07;;;;;;;14.37;1.53;;;4.90;99.90;3.90;97362;;;;606307;236;24079;-80
2022/01/30 02:26:36;;;;;;;10.33;2.10;;;4.80;99.90;3.90;97389;;;;608621;236;24049;-81
2022/01/30 02:29:04;;;;;;;2.07;0.83;;;4.80;99.90;3.90;97420;;;;608610;236;24042;-80
2022/01/30 02:31:35;;;;;;;5.70;1.90;;;4.80;99.90;3.90;97374;;;;608921;234;24023;-80
2022/01/30 02:34:00;;;;;;;10.60;2.30;;;4.80;99.90;3.90;97401;;;;608656;236;24036;-81
2022/01/30 02:36:28;;;;;;;8.50;1.83;;;4.80;99.90;3.80;97372;;;;608594;234;24055;-79
2022/01/30 02:39:00;;;;;;;17.97;2.70;;;4.80;99.90;3.80;97302;;;;609492;234;24077;-81
2022/01/30 02:41:23;;;;;;;9.13;2.00;;;4.80;99.90;3.90;97371;;;;609475;236;24010;-80
2022/01/30 02:44:39;;;;;;;4.50;1.73;;;4.80;99.90;3.90;97350;;;;610060;234;24041;-80
2022/01/30 02:46:28;;;;;;;1.70;1.43;;;4.80;99.90;3.90;97368;;;;607127;235;24001;-79
2022/01/30 02:48:57;;;;;;;5.00;1.93;;;4.80;99.90;3.90;97350;;;;610029;235;24010;-79
2022/01/30 02:51:20;;;;;;;5.03;1.07;;;4.80;99.90;3.80;97363;;;;609962;235;24073;-78
2022/01/30 02:53:54;;;;;;;1.50;0.67;;;4.70;99.90;3.70;97354;;;;609512;235;24029;-81
2022/01/30 02:56:13;;;;;;;3.60;1.47;;;4.60;99.90;3.60;97352;;;;608758;235;24019;-80
2022/01/30 02:58:41;;;;;;;3.67;0.97;;;4.50;99.90;3.30;97343;;;;609450;231;24065;-81
2022/01/30 03:01:09;;;;;;;2.80;0.40;;;4.30;99.90;3.10;97360;;;;609340;230;24050;-81
2022/01/30 03:03:37;;;;;;;1.40;0.83;;;4.00;99.90;2.90;97343;;;;609174;233;24067;-81
2022/01/30 03:06:05;;;;;;;5.27;0.90;;;3.80;99.90;2.70;97338;;;;609147;233;24021;-80
2022/01/30 03:08:32;;;;;;;3.43;1.00;;;3.60;99.90;2.50;97349;;;;609160;233;24059;-79
2022/01/30 03:11:00;;;;;;;3.77;0.73;;;3.40;99.90;2.30;97295;;;;609138;233;24059;-79
2022/01/30 03:13:28;;;;;;;3.87;1.00;;;3.30;99.90;2.20;97313;;;;609131;233;24064;-79
2022/01/30 03:16:00;;;;;;;10.20;2.27;;;3.10;99.90;2.10;97323;;;;609128;230;24051;-79
2022/01/30 03:18:24;;;;;;;7.63;1.30;;;3.00;99.90;2.00;97342;;;;608597;236;24006;-78
2022/01/30 03:20:52;;;;;;;1.00;0.67;;;2.90;99.90;1.90;97344;;;;608887;233;25077;-79
2022/01/30 03:23:20;;;;;;;3.50;1.10;;;2.80;99.90;1.90;97346;;;;608788;231;24041;-78
2022/01/30 03:25:56;;;;;;;1.73;0.90;;;2.80;99.90;1.80;97370;;;;608326;234;24089;-78
2022/01/30 03:28:16;;;;;;;0.40;0.40;;;2.70;99.90;1.60;97384;;;;607776;236;24034;-78
2022/01/30 03:30:45;;;;;;;5.17;1.63;;;2.50;99.90;1.40;97358;;;;608389;234;24061;-78
2022/01/30 03:33:12;;;;;;;4.77;0.60;;;2.40;99.90;1.40;97370;;;;608229;234;24127;-78
2022/01/30 03:35:40;;;;;;;2.40;1.17;;;2.50;99.90;1.30;97357;;;;608394;231;24023;-78
2022/01/30 03:38:08;;;;;;;2.73;1.20;;;2.30;99.90;1.40;97348;;;;608327;234;24074;-78
2022/01/30 03:40:35;;;;;;;8.80;1.60;;;2.30;99.90;1.40;97338;;;;608490;234;24140;-78
2022/01/30 03:43:06;;;;;;;14.40;2.75;;;2.30;99.90;1.40;97336;;;;603495;234;34839;-78
2022/01/30 03:45:34;;;;;;;20.37;2.93;;;2.30;99.90;1.40;97324;;;;608558;234;24012;-78
2022/01/30 03:47:59;;;;;;;10.80;1.93;;;2.30;99.90;1.40;97346;;;;608458;230;24059;-79
2022/01/30 03:50:27;;;;;;;18.00;2.23;;;2.30;99.90;1.40;97330;;;;608913;234;24055;-78
2022/01/30 03:52:59;;;;;;;10.90;1.53;;;2.30;99.90;1.40;97340;;;;608876;234;24025;-78
2022/01/30 03:55:23;;;;;;;7.37;1.77;;;2.30;99.90;1.50;97348;;;;609302;234;24004;-79
2022/01/30 03:57:51;;;;;;;5.80;1.93;;;2.30;99.90;1.50;97316;;;;610216;230;24037;-80
2022/01/30 04:00:21;;;;;;;6.53;2.37;;;2.40;99.90;1.50;97328;;;;609863;233;24020;-79
2022/01/30 04:02:46;;;;;;;9.77;1.67;;;2.40;99.90;1.50;97306;;;;609289;230;26186;-79
2022/01/30 04:05:14;;;;;;;6.93;2.87;;;2.40;99.90;1.70;97316;;;;609496;231;24010;-80
2022/01/30 04:07:42;;;;;;;13.00;2.60;;;2.50;99.90;1.80;97307;;;;609451;233;24054;-80
2022/01/30 04:10:13;;;;;;;12.20;1.77;;;2.60;99.90;1.80;97295;;;;609423;234;24018;-79
2022/01/30 04:12:42;;;;;;;15.70;3.40;;;2.70;99.90;1.90;97341;;;;608802;236;24095;-80
2022/01/30 04:15:06;;;;;;;7.07;1.63;;;2.70;99.90;1.80;97399;;;;608907;230;24002;-78
2022/01/30 04:17:34;;;;;;;1.27;1.17;;;2.80;99.90;1.40;97388;;;;608587;235;24046;-78
2022/01/30 04:20:03;;;;;;;3.40;1.60;;;2.10;99.90;0.80;97382;;;;608914;230;24055;-80
2022/01/30 04:22:30;;;;;;;1.17;0.60;;;2.10;99.90;0.40;97322;;;;608725;233;24029;-80
2022/01/30 04:24:58;;;;;;;0.40;0.40;;;1.70;99.90;0.00;97344;;;;608611;230;24022;-80
2022/01/30 04:27:26;;;;;;;0.40;0.40;;;1.30;99.90;-0.20;97360;;;;609208;233;24041;-84
2022/01/30 04:29:58;;;;;;;0.30;0.30;;;1.00;99.90;-0.30;97348;;;;609513;233;24007;-85
2022/01/30 04:32:25;;;;;;;0.40;0.20;;;0.90;99.90;-0.40;97326;;;;609017;236;23998;-85
2022/01/30 04:34:56;;;;;;;1.60;0.60;;;0.70;99.90;-0.50;97336;;;;608745;236;24239;-80
2022/01/30 04:54:06;;;;;;;8.13;2.20;;;0.70;99.90;-0.40;97335;;;;607279;236;24058;-83
2022/01/30 04:59:07;;;;;;;11.87;1.80;;;0.70;99.90;-0.40;97308;;;;598172;236;24020;-81
2022/01/30 05:07:25;;;;;;;12.00;2.37;;;0.80;99.90;-0.20;97316;;;;591568;235;24047;-79
2022/01/30 05:09:24;;;;;;;7.13;1.87;;;0.80;99.90;-0.20;97308;;;;597794;235;24036;-80
2022/01/30 05:11:48;;;;;;;13.70;2.60;;;0.80;99.90;-0.20;97293;;;;598914;235;24035;-78
2022/01/30 05:14:19;;;;;;;18.17;2.03;;;0.90;99.90;-0.20;97284;;;;599067;235;24129;-78
2022/01/30 05:16:48;;;;;;;5.73;1.73;;;0.90;99.90;-0.20;97308;;;;598614;236;25036;-80
2022/01/30 05:19:16;;;;;;;11.17;2.87;;;0.90;99.90;-0.10;97301;;;;598599;236;24064;-79
2022/01/30 05:21:41;;;;;;;11.20;3.47;;;0.90;99.90;-0.10;97292;;;;598509;236;23998;-79
2022/01/30 05:24:09;;;;;;;2.57;1.23;;;1.00;99.90;0.00;97280;;;;598584;236;24093;-78
2022/01/30 05:26:42;;;;;;;7.30;2.10;;;1.00;99.90;0.00;97295;;;;598282;236;24048;-78
2022/01/30 05:29:14;;;;;;;8.77;1.90;;;1.10;99.90;0.00;97310;;;;598409;236;24029;-78
2022/01/30 05:31:42;;;;;;;5.30;1.57;;;1.10;99.90;0.00;97291;;;;597814;236;24053;-78
2022/01/30 05:34:06;;;;;;;6.10;2.37;;;1.10;99.90;0.10;97300;;;;597638;236;24006;-78
2022/01/30 05:36:35;;;;;;;11.23;2.63;;;1.20;99.90;0.10;97283;;;;597955;235;24010;-78
2022/01/30 05:39:06;;;;;;;17.17;2.47;;;1.20;99.90;0.10;97314;;;;607315;231;24017;-78
2022/01/30 05:41:33;;;;;;;12.30;3.50;;;1.20;99.90;0.20;97297;;;;607094;235;24057;-79
2022/01/30 05:44:06;;;;;;;6.23;1.43;;;1.30;99.90;0.20;97302;;;;597960;236;24030;-78
2022/01/30 05:46:37;;;;;;;16.37;2.73;;;1.30;99.90;0.20;97304;;;;597014;236;24018;-78
2022/01/30 05:49:00;;;;;;;1.47;1.10;;;1.30;99.90;0.20;97290;;;;597689;235;24020;-79
2022/01/30 05:51:28;;;;;;;1.23;1.00;;;1.30;99.90;0.30;97300;;;;607562;234;25053;-80
2022/01/30 05:53:56;;;;;;;7.27;2.00;;;1.30;99.90;0.40;97326;;;;598143;236;24036;-78
2022/01/30 05:56:24;;;;;;;5.67;1.33;;;1.40;99.90;0.40;97300;;;;598114;236;24002;-78
2022/01/30 05:58:52;;;;;;;6.80;2.37;;;1.40;99.90;0.50;97304;;;;598064;236;23989;-78
2022/01/30 06:01:21;;;;;;;3.60;1.83;;;1.60;99.90;0.60;97300;;;;598106;236;24002;-77
2022/01/30 06:03:49;;;;;;;5.03;1.67;;;1.60;99.90;0.50;97302;;;;598071;236;24034;-77
2022/01/30 06:06:17;;;;;;;5.13;1.67;;;1.60;99.90;0.60;97296;;;;598088;236;23989;-78
2022/01/30 06:09:18;;;;;;;9.47;2.63;;;1.70;99.90;0.70;97307;;;;598176;230;24036;-77
2022/01/30 06:11:16;;;;;;;3.63;1.10;;;1.80;99.90;0.70;97313;;;;596583;236;24059;-78
2022/01/30 06:13:44;;;;;;;11.77;1.93;;;1.80;99.90;0.80;97328;;;;598053;236;24059;-78
2022/01/30 06:16:12;;;;;;;13.13;2.33;;;1.90;99.90;0.90;97324;;;;598160;236;24032;-79
2022/01/30 06:18:40;;;;;;;0.73;0.70;;;2.00;99.90;1.00;97330;;;;599184;235;24099;-78
2022/01/30 06:21:08;;;;;;;14.13;3.17;;;2.10;99.90;1.00;97332;;;;599439;235;24052;-78
2022/01/30 06:23:36;;;;;;;4.47;2.57;;;2.20;99.90;1.10;97346;;;;599097;235;24029;-77
2022/01/30 06:26:03;;;;;;;5.93;1.40;;;2.30;99.90;1.20;97337;;;;598487;235;24008;-78
2022/01/30 06:28:31;;;;;;;10.50;1.77;;;2.30;99.90;1.30;97324;;;;598248;236;24070;-78
2022/01/30 06:30:59;;;;;;;5.13;1.27;;;2.40;99.90;1.40;97339;;;;598437;235;24028;-78
2022/01/30 06:33:27;;;;;;;9.43;1.10;;;2.50;99.90;1.40;97319;;;;598325;236;24065;-78
2022/01/30 06:35:55;;;;;;;14.00;2.07;;;2.60;99.90;1.50;97323;;;;598350;236;23993;-79
2022/01/30 06:38:23;;;;;;;5.03;0.97;;;2.60;99.90;1.60;97334;;;;598287;236;24017;-78
2022/01/30 06:40:51;;;;;;;7.30;0.80;;;2.70;99.90;1.70;97323;;;;597902;235;25074;-78
2022/01/30 06:43:19;;;;;;;9.00;2.30;;;2.80;99.90;1.80;97341;;;;598120;236;24007;-78
2022/01/30 06:58:56;;;;;;;8.57;2.20;;;3.30;99.90;2.20;97350;;;;617693;228;32584;-81
2022/01/30 07:01:21;;;;;;;6.27;1.70;;;3.30;99.90;2.30;97353;;;;607191;237;24047;-79
2022/01/30 07:03:53;;;;;;;5.70;1.70;;;3.50;99.90;2.40;97391;;;;607111;236;24073;-82
2022/01/30 07:06:17;;;;;;;9.77;1.80;;;3.50;99.90;2.40;97372;;;;606651;237;24084;-81
2022/01/30 07:08:48;;;;;;;4.43;1.53;;;3.50;99.90;2.40;97383;;;;606813;236;24076;-83
2022/01/30 07:11:15;;;;;;;7.00;1.10;;;3.50;99.90;2.40;97393;;;;606540;237;24053;-79
2022/01/30 07:13:41;;;;;;;2.47;1.20;;;3.50;99.90;2.40;97383;;;;607121;236;24095;-79
2022/01/30 07:16:09;;;;;;;7.63;1.13;;;3.40;99.90;2.30;97400;;;;607046;236;24048;-78
2022/01/30 07:18:37;;;;;;;8.73;2.33;;;3.30;99.90;2.20;97404;;;;606911;233;25284;-79
2022/01/30 07:21:07;;;;;;;4.27;1.33;;;3.20;99.90;2.10;97394;;;;606950;236;24053;-80
2022/01/30 07:23:32;;;;;;;3.47;1.53;;;3.10;99.90;2.10;97417;;;;606425;237;24096;-80
2022/01/30 07:26:00;;;;;;;7.40;1.47;;;3.00;99.90;2.00;97411;;;;606687;236;24053;-81
2022/01/30 07:28:28;;;;;;;7.12;2.42;;;3.00;99.90;2.10;97406;;;;601458;233;35031;-79
2022/01/30 07:30:56;;;;;;;5.57;1.90;;;3.00;99.90;2.00;97392;;;;607025;236;24065;-78
2022/01/30 07:33:24;;;;;;;4.17;1.30;;;3.00;99.90;2.00;97396;;;;606832;236;24050;-81
2022/01/30 07:35:55;;;;;;;2.17;1.07;;;3.00;99.90;2.10;97391;;;;606547;233;24081;-79
2022/01/30 07:38:23;;;;;;;9.43;2.00;;;3.00;99.90;2.10;97404;;;;606241;237;24053;-79
2022/01/30 07:40:47;;;;;;;4.83;1.03;;;3.10;99.90;2.10;97409;;;;606487;237;24055;-82
2022/01/30 07:43:15;;;;;;;0.30;0.30;;;3.10;99.90;2.20;97403;;;;606679;233;24054;-79
2022/01/30 07:45:43;;;;;;;3.80;1.10;;;3.10;99.90;2.20;97416;;;;605817;236;24056;-79
2022/01/30 07:48:15;;;;;;;2.00;0.83;;;3.20;99.90;2.30;97402;;;;605798;236;24105;-79
2022/01/30 07:50:39;;;;;;;2.23;0.73;;;3.20;99.90;2.30;97421;;;;608018;231;24018;-79
2022/01/30 07:53:07;;;;;;;0.60;0.50;;;3.20;99.90;2.30;97419;;;;609222;234;24045;-79
2022/01/30 07:55:38;;;;;;;2.57;1.17;;;3.30;99.90;2.40;97413;;;;609217;234;24067;-81
2022/01/30 07:58:06;;;;;;;9.23;1.20;;;3.30;99.90;2.40;97429;;;;608898;236;24054;-82
2022/01/30 08:00:30;;;;;;;0.97;0.60;;;3.30;99.90;2.40;97418;;;;609165;236;24020;-82
2022/01/30 08:02:58;;;;;;;2.00;0.67;;;3.40;99.90;2.40;97434;;;;609826;234;24050;-82
2022/01/30 08:05:26;;;;;;;0.87;0.47;;;3.40;99.90;2.50;97441;;;;609820;230;24023;-78
2022/01/30 08:07:54;;;;;;;3.00;0.70;;;3.40;99.90;2.40;97457;;;;609678;234;24032;-79
2022/01/30 08:10:25;;;;;;;0.30;0.30;;;3.40;99.90;2.40;97497;;;;611068;229;24005;-79
2022/01/30 08:12:50;;;;;;;0.53;0.53;;;3.40;99.90;2.20;97524;;;;610470;235;24006;-78
2022/01/30 08:15:18;;;;;;;5.83;1.17;;;3.20;99.90;1.90;97528;;;;610674;233;24064;-82
2022/01/30 08:17:47;;;;;;;1.00;0.53;;;2.90;99.90;1.60;97549;;;;610757;233;24010;-83
2022/01/30 08:20:17;;;;;;;1.60;1.30;;;2.70;99.90;1.40;97537;;;;610264;230;24022;-84
2022/01/30 08:22:50;;;;;;;2.30;0.70;;;2.40;99.90;1.30;97540;;;;610027;236;24049;-82
2022/01/30 08:25:21;;;;;;;3.03;0.53;;;2.30;99.90;1.40;97555;;;;609398;236;24059;-82
2022/01/30 08:27:46;;;;;;;0.93;0.50;;;2.30;99.90;1.40;97560;;;;609768;231;24027;-82
2022/01/30 08:30:15;;;;;;;4.80;1.43;;;2.30;99.90;1.50;97562;;;;609661;233;24029;-82
2022/01/30 08:32:46;;;;;;;1.47;0.67;;;2.40;99.90;1.60;97577;;;;609321;231;26192;-82
2022/01/30 08:35:14;;;;;;;1.43;1.00;;;2.50;99.90;1.60;97564;;;;608934;234;24018;-82
2022/01/30 08:37:43;;;;;;;4.53;0.80;;;2.50;99.90;1.50;97571;;;;608452;236;24049;-80
2022/01/30 08:40:06;;;;;;;1.00;0.53;;;2.40;99.90;1.50;97584;;;;608575;236;24018;-80
2022/01/30 08:42:34;;;;;;;3.50;0.87;;;2.40;99.90;1.50;97599;;;;609065;236;24033;-81
2022/01/30 08:45:02;;;;;;;2.60;0.60;;;2.50;99.90;1.60;97604;;;;609087;234;24034;-80
2022/01/30 08:47:30;;;;;;;4.33;0.63;;;2.50;99.90;1.60;97604;;;;609595;234;24005;-83
2022/01/30 08:49:58;;;;;;;0.57;0.47;;;2.50;99.90;1.50;97616;;;;609291;234;24014;-80
2022/01/30 08:52:26;;;;;;;0.20;0.20;;;2.40;99.90;1.50;97614;;;;610054;230;24011;-81
2022/01/30 08:54:54;;;;;;;2.33;0.40;;;2.50;99.90;1.50;97614;;;;610175;234;24022;-80
2022/01/30 08:57:21;;;;;;;0.57;0.43;;;2.40;99.90;1.50;97628;;;;609796;234;24061;-84
2022/01/30 08:59:51;;;;;;;2.35;0.70;;;2.40;99.90;1.50;97627;;;;604035;234;34665;-82
2022/01/30 09:02:19;;;;;;;2.47;0.83;;;2.40;99.90;1.40;97632;;;;609199;234;24054;-82
2022/01/30 09:04:45;;;;;;;2.17;0.90;;;2.40;99.90;1.40;97644;;;;609387;234;24069;-82
2022/01/30 09:07:13;;;;;;;0.20;0.20;;;2.40;99.90;1.40;97648;;;;609590;234;25091;-80
2022/01/30 09:09:41;;;;;;;0.17;0.17;;;2.40;99.90;1.50;97662;;;;609650;234;24021;-81
2022/01/30 09:12:12;;;;;;;0.40;0.30;;;2.40;99.90;1.50;97676;;;;608854;234;24027;-79
2022/01/30 09:14:42;;;;;;;0.20;0.20;;;2.40;99.90;1.40;97685;;;;608302;231;24031;-80
2022/01/30 09:17:11;;;;;;;0.40;0.40;;;2.40;99.90;1.40;97687;;;;608130;236;24002;-79
2022/01/30 09:19:32;;;;;;;0.10;0.10;;;2.30;99.90;1.30;97710;;;;608711;231;24084;-79
2022/01/30 09:22:00;;;;;;;0.27;0.27;;;2.30;99.90;1.30;97703;;;;610257;229;24071;-79
2022/01/30 09:24:28;;;;;;;0.33;0.33;;;2.20;99.90;1.30;97719;;;;609633;230;24064;-79
2022/01/30 09:26:56;;;;;;;0.83;0.63;;;2.20;99.90;1.30;97715;;;;609644;233;24027;-79
2022/01/30 09:29:24;;;;;;;0.87;0.37;;;2.20;99.90;1.40;97716;;;;609464;230;24060;-79
2022/01/30 09:31:52;;;;;;;1.53;0.90;;;2.30;99.90;1.40;97724;;;;609059;233;24042;-77
2022/01/30 09:34:20;;;;;;;0.73;0.47;;;2.30;99.90;1.40;97738;;;;609184;233;24071;-79
2022/01/30 09:36:48;;;;;;;0.60;0.60;;;2.30;99.90;1.40;97755;;;;609088;233;24087;-78
2022/01/30 09:39:16;;;;;;;0.40;0.40;;;2.30;99.90;1.40;97766;;;;609037;233;24030;-79
2022/01/30 09:41:47;;;;;;;0.30;0.30;;;2.30;99.90;1.40;97794;;;;609053;233;24010;-79
2022/01/30 09:44:12;;;;;;;0.30;0.30;;;2.30;99.90;1.40;97821;;;;608521;236;24046;-79
2022/01/30 09:46:43;;;;;;;0.17;0.17;;;2.30;99.90;1.40;97793;;;;609832;233;24057;-81
2022/01/30 09:49:11;;;;;;;3.53;0.73;;;2.30;99.90;1.40;97817;;;;609761;236;24061;-80
2022/01/30 09:51:38;;;;;;;2.25;1.48;;;2.40;99.90;1.50;97806;;;;604538;231;34688;-80
2022/01/30 09:54:09;;;;;;;0.83;0.83;;;2.40;99.90;1.50;97809;;;;609582;233;24009;-81
2022/01/30 09:56:34;;;;;;;0.73;0.47;;;2.40;99.90;1.50;97812;;;;608858;231;24002;-79
2022/01/30 09:59:02;;;;;;;1.87;0.70;;;2.40;99.90;1.50;97811;;;;609230;231;24024;-78
2022/01/30 10:01:30;;;;;;;0.47;0.47;;;2.50;99.90;1.60;97802;;;;609144;231;24023;-79
2022/01/30 10:03:58;;;;;;;1.57;0.60;;;2.50;99.90;1.60;97822;;;;609420;234;24002;-82
2022/01/30 10:06:31;;;;;;;0.63;0.47;;;2.50;99.90;1.60;97827;;;;609804;234;24027;-82
2022/01/30 10:08:56;;;;;;;1.50;0.83;;;2.50;99.90;1.60;97822;;;;609372;236;23994;-83
2022/01/30 10:11:33;;;;;;;0.40;0.33;;;2.50;99.90;1.60;97829;;;;609721;234;24084;-82
2022/01/30 10:14:19;;;;;;;0.50;0.43;;;2.50;99.90;1.60;97841;;;;609451;236;25108;-84
2022/01/30 10:16:49;;;;;;;3.97;0.60;;;2.50;99.90;1.70;97865;;;;607459;231;24060;-81
2022/01/30 10:19:23;;;;;;;0.20;0.20;;;2.60;99.90;1.70;97867;;;;608864;234;24053;-83
2022/01/30 10:22:05;;;;;;;0.30;0.30;;;2.60;99.90;1.80;97866;;;;608677;231;24034;-84
2022/01/30 10:24:33;;;;;;;0.20;0.20;;;2.70;99.90;1.80;97866;;;;608442;236;24073;-83
2022/01/30 10:27:03;;;;;;;0.53;0.27;;;2.70;99.90;1.80;97868;;;;608199;231;24064;-80
2022/01/30 10:29:29;;;;;;;0.20;0.20;;;2.70;99.90;1.80;97865;;;;607521;236;24045;-79
2022/01/30 10:32:05;;;;;;;2.77;1.67;;;2.70;99.90;1.80;97884;;;;609514;234;24094;-79
2022/01/30 10:34:33;;;;;;;0.57;0.57;;;2.70;99.90;1.80;97922;;;;609971;235;24037;-80
2022/01/30 10:37:19;;;;;;;2.07;0.63;;;2.70;99.90;1.80;97921;;;;609669;230;24066;-78
2022/01/30 10:40:17;;;;;;;1.30;0.90;;;2.70;99.90;1.80;97926;;;;609564;233;24037;-79
2022/01/30 10:42:47;;;;;;;0.77;0.63;;;2.70;99.90;1.90;97940;;;;609013;231;24021;-78
2022/01/30 10:45:23;;;;;;;0.30;0.30;;;2.80;99.90;1.90;97938;;;;608982;236;26127;-79
2022/01/30 10:47:51;;;;;;;0.37;0.37;;;2.80;99.90;2.00;97958;;;;609276;233;24033;-80
2022/01/30 10:50:18;;;;;;;0.30;0.27;;;2.90;99.90;2.00;97961;;;;609113;233;24063;-80
2022/01/30 10:52:52;;;;;;;1.03;0.23;;;2.90;99.90;2.10;97972;;;;609025;231;24045;-78
2022/01/30 10:55:36;;;;;;;1.40;0.57;;;3.00;99.90;2.10;97974;;;;609514;233;24046;-78
2022/01/30 10:58:02;;;;;;;0.40;0.33;;;3.00;99.90;2.10;97988;;;;608325;236;24013;-81
2022/01/30 11:00:51;;;;;;;2.73;0.43;;;3.00;99.90;2.10;97998;;;;609230;236;24063;-80
2022/01/30 11:03:39;;;;;;;0.10;0.10;;;3.00;99.90;2.10;98022;;;;609095;233;24044;-77
2022/01/30 11:06:09;;;;;;;0.77;0.43;;;3.00;99.90;2.10;98010;;;;609343;231;24098;-78
2022/01/30 11:08:38;;;;;;;0.40;0.40;;;3.00;99.90;2.10;98031;;;;608425;236;24053;-79
2022/01/30 11:11:16;;;;;;;0.57;0.57;;;3.00;99.90;2.10;98027;;;;608726;236;24040;-79
2022/01/30 11:13:47;;;;;;;0.37;0.37;;;3.00;99.90;2.10;98027;;;;607987;236;24018;-77
2022/01/30 11:18:51;;;;;;;3.37;0.57;;;3.00;99.90;2.10;98040;;;;608852;235;24011;-79
2022/01/30 11:21:18;;;;;;;0.50;0.50;;;3.10;99.90;2.20;98017;;;;609145;234;24022;-75
2022/01/30 11:23:46;;;;;;;1.47;0.20;;;3.10;99.90;2.20;98044;;;;608499;231;24037;-79
2022/01/30 11:26:14;;;;;;;0.50;0.50;;;3.10;99.90;2.20;98054;;;;608753;234;24030;-80
2022/01/30 11:28:45;;;;;;;0.67;0.57;;;3.10;99.90;2.30;98034;;;;608852;234;24081;-81
2022/01/30 11:31:12;;;;;;;1.60;0.20;;;3.10;99.90;2.30;98059;;;;608474;236;24010;-79
2022/01/30 11:33:40;;;;;;;1.83;1.03;;;3.20;99.90;2.30;98057;;;;608861;236;24010;-80
2022/01/30 11:36:05;;;;;;;0.20;0.20;;;3.20;99.90;2.30;98049;;;;608477;231;24026;-78
2022/01/30 11:38:33;;;;;;;0.30;0.30;;;3.20;99.90;2.40;98068;;;;608753;231;24068;-78
2022/01/30 11:41:13;;;;;;;2.13;0.50;;;3.30;99.90;2.40;98071;;;;608868;236;24039;-79
2022/01/30 11:43:45;;;;;;;0.97;0.30;;;3.40;99.90;2.50;98100;;;;609106;234;24076;-78
2022/01/30 11:46:18;;;;;;;2.17;0.40;;;3.40;99.90;2.60;98057;;;;607286;235;23993;-77
2022/01/30 11:48:42;;;;;;;0.83;0.70;;;3.50;99.90;2.60;98072;;;;609400;234;24025;-80
2022/01/30 11:51:10;;;;;;;1.37;0.60;;;3.60;99.90;2.80;98085;;;;609855;233;24048;-79
2022/01/30 11:53:38;;;;;;;0.87;0.40;;;3.70;99.90;2.80;98088;;;;609232;231;24013;-78
2022/01/30 11:56:10;;;;;;;1.23;1.13;;;3.80;99.90;3.00;98116;;;;609331;230;24050;-77
2022/01/30 11:58:35;;;;;;;2.23;1.30;;;4.00;99.90;3.10;98119;;;;608964;236;24005;-77
2022/01/30 12:01:27;;;;;;;5.00;2.83;;;4.10;99.90;3.20;98125;;;;609313;234;24064;-79
2022/01/30 12:03:59;;;;;;;9.90;1.90;;;4.10;99.90;3.20;98159;;;;608937;233;24030;-78
2022/01/30 12:06:27;;;;;;;8.37;1.97;;;4.20;99.90;3.30;98166;;;;608502;236;24048;-77
2022/01/30 12:08:59;;;;;;;4.47;2.23;;;4.30;99.90;3.30;98176;;;;609074;233;24018;-78
2022/01/30 12:11:37;;;;;;;1.33;0.73;;;4.30;99.90;3.30;98178;;;;608932;234;24014;-77
2022/01/30 12:14:10;;;;;;;3.37;1.97;;;4.40;99.90;3.50;98177;;;;608875;233;24039;-76
2022/01/30 12:16:48;;;;;;;10.57;1.90;;;4.50;99.90;3.50;98188;;;;606427;236;24018;-77
2022/01/30 12:19:17;;;;;;;3.60;1.63;;;4.50;99.90;3.70;98177;;;;608576;236;24033;-76
2022/01/30 12:21:45;;;;;;;1.50;1.23;;;4.70;99.90;3.70;98183;;;;607111;236;24069;-78
2022/01/30 12:24:28;;;;;;;5.57;2.00;;;4.80;99.90;3.80;98196;;;;608583;234;24054;-76
2022/01/30 12:27:04;;;;;;;5.27;1.60;;;4.80;99.90;3.90;98206;;;;608625;234;25094;-77
2022/01/30 12:29:38;;;;;;;5.10;1.90;;;4.90;99.90;4.00;98191;;;;608445;234;24057;-76
2022/01/30 12:32:26;;;;;;;1.57;1.43;;;4.90;99.90;4.10;98220;;;;608469;236;24033;-77
2022/01/30 12:35:01;;;;;;;1.87;0.90;;;5.00;99.90;4.10;98229;;;;608566;236;24021;-76
2022/01/30 12:37:28;;;;;;;3.47;1.73;;;5.10;99.90;4.20;98225;;;;607623;231;24040;-78
2022/01/30 12:39:59;;;;;;;0.90;0.90;;;5.20;99.90;4.30;98251;;;;608921;230;24010;-77
2022/01/30 12:42:24;;;;;;;2.73;0.87;;;5.20;99.90;4.30;98249;;;;608243;236;24032;-78
2022/01/30 12:44:52;;;;;;;4.13;2.30;;;5.20;99.90;4.40;98249;;;;608538;231;25128;-79
2022/01/30 12:47:20;;;;;;;0.80;0.50;;;5.30;99.90;4.40;98243;;;;608309;236;24030;-80
2022/01/30 12:49:51;;;;;;;0.97;0.50;;;5.40;99.90;4.50;98252;;;;608704;234;24036;-77
2022/01/30 12:52:33;;;;;;;2.27;0.70;;;5.40;99.90;4.60;98278;;;;608842;234;24049;-77